Terminal Aerodrome Forecast
Issued by NWS

Home | Current Version | Previous Version | Text Only | Print | Product List | Glossary On
Versions: 1 2 3 4 5 6 7 8 9 10 11 12 13 14 15 16 17 18 19 20 21
000
FTUS43 KDVN 171700
TAFCID
TAF
KCID 171721Z 1718/1818 30010KT P6SM BKN015
     FM172200 33007KT P6SM SCT015
     FM180100 36005KT P6SM SCT250
     FM180600 36003KT P6SM SCT100 OVC250
     FM181300 01004KT P6SM BKN150 OVC250=

USA.gov is the U.S. government's official web portal to all federal, state and local government web resources and services.